createdAt,value
2022-10-24T00:03:14.752Z,12.36
2022-10-24T00:08:16.815Z,12.42
2022-10-24T00:13:19.407Z,12.44
2022-10-24T00:18:21.384Z,12.57
2022-10-24T00:23:23.366Z,12.65
2022-10-24T00:28:25.508Z,12.65
2022-10-24T00:33:29.356Z,12.64
2022-10-24T00:38:31.370Z,12.62
2022-10-24T00:43:33.635Z,12.58
2022-10-24T00:48:42.866Z,12.56
2022-10-24T00:53:49.599Z,12.56
2022-10-24T00:58:53.651Z,12.56
2022-10-24T01:03:55.666Z,12.37
2022-10-24T01:09:09.817Z,12.33
2022-10-24T01:14:27.835Z,12.34
2022-10-24T01:20:07.024Z,12.04
2022-10-24T01:25:45.057Z,12.25
2022-10-24T01:31:08.261Z,12.29
2022-10-24T01:36:21.270Z,12.35
2022-10-24T01:41:26.994Z,12.18
2022-10-24T01:46:34.141Z,12.27
2022-10-24T01:51:38.641Z,12.26
2022-10-24T01:56:40.648Z,12.27
2022-10-24T02:01:42.788Z,12.11
2022-10-24T02:06:48.824Z,11.99
2022-10-24T02:11:54.801Z,12.16
2022-10-24T02:16:56.874Z,12.15
2022-10-24T02:22:02.102Z,12.18
2022-10-24T02:27:13.076Z,12.15
2022-10-24T02:32:21.436Z,11.88
2022-10-24T02:37:25.564Z,11.90
2022-10-24T02:47:32.636Z,11.66
2022-10-24T02:52:36.677Z,11.59
2022-10-24T02:57:39.617Z,11.54
2022-10-24T03:02:41.648Z,11.67
2022-10-24T03:07:43.672Z,11.61
2022-10-24T03:12:45.917Z,11.48
2022-10-24T03:17:49.229Z,11.59
2022-10-24T03:22:51.984Z,11.62
2022-10-24T03:27:54.027Z,11.60
2022-10-24T03:33:02.769Z,11.48
2022-10-24T03:38:04.803Z,11.51
2022-10-24T03:43:06.716Z,11.51
2022-10-24T03:48:09.228Z,11.48
2022-10-24T03:53:11.416Z,11.47
2022-10-24T03:58:13.395Z,11.63
2022-10-24T04:03:15.396Z,11.60
2022-10-24T04:08:17.515Z,11.75
2022-10-24T04:13:19.484Z,11.64
2022-10-24T04:18:21.482Z,11.88
2022-10-24T04:23:23.457Z,12.03
2022-10-24T04:28:25.431Z,12.11
2022-10-24T04:33:27.579Z,12.06
2022-10-24T04:38:33.275Z,12.17
2022-10-24T04:43:35.737Z,12.12
2022-10-24T04:48:37.710Z,12.08
2022-10-24T04:53:39.804Z,11.99
2022-10-24T04:58:41.817Z,11.99
2022-10-24T05:03:43.810Z,12.14
2022-10-24T05:08:45.779Z,12.21
2022-10-24T05:13:47.764Z,12.22
2022-10-24T05:18:49.883Z,12.28
2022-10-24T05:23:51.938Z,12.27
2022-10-24T05:28:53.932Z,12.37
2022-10-24T05:33:56.169Z,12.48
2022-10-24T05:38:58.128Z,12.48
2022-10-24T05:44:00.452Z,12.40
2022-10-24T05:49:02.429Z,12.33
2022-10-24T05:54:04.483Z,12.53
2022-10-24T05:59:06.780Z,12.49
2022-10-24T06:04:12.830Z,12.65
2022-10-24T06:09:16.009Z,12.66
2022-10-24T06:14:18.060Z,12.82
2022-10-24T06:19:21.819Z,12.97
2022-10-24T06:24:23.902Z,13.07
2022-10-24T06:29:25.925Z,12.90
2022-10-24T06:34:28.853Z,13.19
2022-10-24T06:39:30.876Z,13.05
2022-10-24T06:44:32.978Z,13.14
2022-10-24T06:49:35.011Z,13.21
2022-10-24T06:54:39.037Z,13.11
2022-10-24T06:59:41.177Z,13.01
2022-10-24T07:04:43.222Z,13.11
2022-10-24T07:09:45.856Z,13.18
2022-10-24T07:14:48.396Z,13.18
2022-10-24T07:19:54.613Z,13.38
2022-10-24T07:24:56.780Z,13.52
2022-10-24T07:30:03.051Z,13.74
2022-10-24T07:35:08.167Z,14.05
2022-10-24T07:40:10.788Z,14.08
2022-10-24T07:45:12.817Z,14.04
2022-10-24T07:50:17.385Z,14.14
2022-10-24T07:55:19.334Z,14.14
2022-10-24T08:00:21.479Z,14.33
2022-10-24T08:05:23.609Z,14.60
2022-10-24T08:10:25.712Z,14.65
2022-10-24T08:15:27.937Z,15.02
2022-10-24T08:20:30.157Z,15.29
2022-10-24T08:25:32.334Z,15.71
2022-10-24T08:30:34.344Z,15.76
2022-10-24T08:35:36.544Z,16.24
2022-10-24T08:40:39.760Z,16.10
2022-10-24T08:45:55.897Z,16.47
2022-10-24T08:51:17.873Z,16.57
2022-10-24T08:56:21.121Z,16.57
2022-10-24T09:01:52.690Z,16.80
2022-10-24T09:06:55.743Z,16.93
2022-10-24T09:12:11.229Z,17.25
2022-10-24T09:22:30.296Z,17.56
2022-10-24T09:27:38.072Z,17.69
2022-10-24T09:32:42.361Z,17.75
2022-10-24T09:37:49.420Z,17.78
2022-10-24T09:43:00.642Z,17.83
2022-10-24T09:48:07.689Z,18.12
2022-10-24T09:53:29.029Z,18.28
2022-10-24T09:58:35.614Z,18.57
2022-10-24T10:03:37.508Z,18.85
2022-10-24T10:08:39.854Z,18.99
2022-10-24T10:13:51.959Z,18.79
2022-10-24T10:19:18.109Z,18.76
2022-10-24T10:24:42.256Z,18.89
2022-10-24T10:29:44.277Z,19.26
2022-10-24T10:34:53.987Z,19.18
2022-10-24T10:40:15.329Z,18.96
2022-10-24T10:45:41.474Z,19.05
2022-10-24T10:51:10.600Z,19.01
2022-10-24T10:56:39.353Z,19.07
2022-10-24T11:01:51.442Z,19.14
2022-10-24T11:06:58.581Z,19.17
2022-10-24T11:12:24.341Z,19.35
2022-10-24T11:17:42.712Z,19.51
2022-10-24T11:22:59.377Z,19.86
2022-10-24T11:28:07.122Z,19.74
2022-10-24T11:33:20.242Z,19.80
2022-10-24T11:38:24.659Z,19.60
2022-10-24T11:43:40.250Z,19.86
2022-10-24T11:48:51.122Z,20.22
2022-10-24T11:54:00.105Z,20.47
2022-10-24T11:59:08.445Z,20.64
2022-10-24T12:04:29.028Z,20.92
2022-10-24T12:09:34.560Z,20.90
2022-10-24T12:15:17.637Z,20.94
2022-10-24T12:20:22.710Z,20.86
2022-10-24T12:25:30.833Z,20.66
2022-10-24T12:30:35.717Z,20.53
2022-10-24T12:35:40.755Z,20.31
2022-10-24T12:40:46.037Z,20.13
2022-10-24T12:45:48.168Z,19.89
2022-10-24T12:51:19.401Z,19.65
2022-10-24T12:56:21.716Z,19.59
2022-10-24T13:01:38.011Z,19.68
2022-10-24T13:07:18.254Z,19.58
2022-10-24T13:12:33.551Z,19.74
2022-10-24T13:17:38.664Z,19.75
2022-10-24T13:22:41.641Z,19.81
2022-10-24T13:27:43.655Z,19.68
2022-10-24T13:32:45.834Z,19.62
2022-10-24T13:37:51.159Z,19.60
2022-10-24T13:43:06.781Z,19.55
2022-10-24T13:48:21.491Z,19.57
2022-10-24T13:53:35.381Z,19.53
2022-10-24T13:58:44.315Z,19.42
2022-10-24T14:03:48.261Z,19.33
2022-10-24T14:09:02.706Z,19.33
2022-10-24T14:14:12.034Z,19.35
2022-10-24T14:19:17.733Z,19.29
2022-10-24T14:24:24.690Z,19.28
2022-10-24T14:29:32.579Z,19.31
2022-10-24T14:34:39.660Z,19.24
2022-10-24T14:39:42.189Z,19.11
2022-10-24T14:44:46.385Z,18.95
2022-10-24T14:49:48.917Z,18.82
2022-10-24T14:55:27.437Z,18.62
2022-10-24T15:00:37.917Z,18.38
2022-10-24T15:05:41.284Z,18.24
2022-10-24T15:10:43.985Z,18.12
2022-10-24T15:15:50.389Z,17.95
2022-10-24T15:20:59.325Z,17.69
2022-10-24T15:26:10.801Z,17.53
2022-10-24T15:31:15.438Z,17.38
2022-10-24T15:36:24.152Z,17.23
2022-10-24T15:41:27.474Z,17.14
2022-10-24T15:46:31.080Z,17.02
2022-10-24T15:51:33.487Z,16.88
2022-10-24T15:56:36.237Z,16.79
2022-10-24T16:01:44.988Z,16.70
2022-10-24T16:06:47.834Z,16.66
2022-10-24T16:11:49.903Z,16.65
2022-10-24T16:16:54.730Z,16.70
2022-10-24T16:22:00.990Z,16.66
2022-10-24T16:27:03.296Z,16.57
2022-10-24T16:32:05.485Z,16.49
2022-10-24T16:37:07.516Z,16.40
2022-10-24T16:42:09.781Z,16.27
2022-10-24T16:47:11.714Z,16.19
2022-10-24T16:52:13.786Z,16.14
2022-10-24T16:57:16.045Z,16.03
2022-10-24T17:02:18.653Z,15.98
2022-10-24T17:07:20.716Z,15.93
2022-10-24T17:12:22.902Z,15.91
2022-10-24T17:17:24.882Z,15.86
2022-10-24T17:22:27.922Z,15.87
2022-10-24T17:27:36.305Z,15.84
2022-10-24T17:32:38.325Z,15.87
2022-10-24T17:38:00.844Z,15.82
2022-10-24T17:43:06.314Z,15.82
2022-10-24T17:48:10.181Z,15.87
2022-10-24T17:53:18.105Z,15.95
2022-10-24T17:58:20.257Z,15.96
2022-10-24T18:03:22.404Z,16.04
2022-10-24T18:08:24.551Z,16.00
2022-10-24T18:13:26.856Z,15.99
2022-10-24T18:18:29.159Z,15.92
2022-10-24T18:23:37.289Z,15.77
2022-10-24T18:28:47.895Z,15.70
2022-10-24T18:33:51.151Z,15.60
2022-10-24T18:38:59.084Z,15.60
2022-10-24T18:44:14.026Z,15.53
2022-10-24T18:49:16.968Z,15.45
2022-10-24T18:54:21.158Z,15.41
2022-10-24T18:59:23.589Z,15.34
2022-10-24T19:04:26.904Z,15.36
2022-10-24T19:09:29.864Z,15.39
2022-10-24T19:14:32.094Z,15.41
2022-10-24T19:19:35.127Z,15.27
2022-10-24T19:24:38.785Z,15.13
2022-10-24T19:29:40.867Z,15.01
2022-10-24T19:34:43.545Z,14.99
2022-10-24T19:39:45.877Z,15.06
2022-10-24T19:44:50.313Z,15.07
2022-10-24T19:49:53.001Z,15.08
2022-10-24T19:54:55.118Z,15.09
2022-10-24T19:59:57.275Z,15.11
2022-10-24T20:04:59.240Z,15.14
2022-10-24T20:10:01.195Z,15.16
2022-10-24T20:15:03.286Z,15.17
2022-10-24T20:20:06.089Z,15.15
2022-10-24T20:25:08.167Z,15.15
2022-10-24T20:30:10.813Z,15.16
2022-10-24T20:35:13.017Z,14.98
2022-10-24T20:40:15.165Z,15.12
2022-10-24T20:45:39.939Z,15.23
2022-10-24T20:50:41.929Z,15.23
2022-10-24T20:55:44.797Z,15.27
2022-10-24T21:00:47.211Z,15.27
2022-10-24T21:05:49.173Z,15.32
2022-10-24T21:10:51.181Z,15.36
2022-10-24T21:15:56.782Z,15.41
2022-10-24T21:20:58.753Z,15.43
2022-10-24T21:26:02.504Z,15.45
2022-10-24T21:31:09.382Z,15.49
2022-10-24T21:36:21.372Z,15.55
2022-10-24T21:41:24.437Z,15.54
2022-10-24T21:46:29.184Z,15.60
2022-10-24T21:51:36.514Z,15.69
2022-10-24T21:56:38.688Z,15.78
2022-10-24T22:01:41.457Z,15.86
2022-10-24T22:06:44.257Z,15.93
2022-10-24T22:11:46.605Z,15.97
2022-10-24T22:16:48.665Z,16.04
2022-10-24T22:21:51.376Z,16.05
2022-10-24T22:26:53.638Z,16.07
2022-10-24T22:31:55.953Z,16.17
2022-10-24T22:37:12.882Z,16.21
2022-10-24T22:42:19.331Z,16.24
2022-10-24T22:48:07.149Z,16.31
2022-10-24T22:53:12.545Z,16.22
2022-10-24T22:58:14.960Z,16.18
2022-10-24T23:03:35.884Z,16.20
2022-10-24T23:08:40.821Z,16.21
2022-10-24T23:13:43.253Z,16.17
2022-10-24T23:18:45.616Z,16.24
2022-10-24T23:23:47.948Z,16.22
2022-10-24T23:28:56.300Z,16.22
2022-10-24T23:33:58.612Z,16.20
2022-10-24T23:39:00.831Z,16.13
2022-10-24T23:44:03.044Z,16.18
2022-10-24T23:49:04.924Z,16.11
2022-10-24T23:54:10.651Z,16.16
2022-10-24T23:59:12.777Z,16.15
